Time;durP1;ratioP1;P1;durP2;ratioP2;P2;SDS_P1;SDS_P2;PMS_P1;PMS_P2;Temp;Humidity;BMP_temperature;BMP_pressure;BME280_temperature;BME280_humidity;BME280_pressure;Samples;Min_cycle;Max_cycle;Signal;HPM_P1;HPM_P2
2023/11/12 00:02:12;;;;;;;11.70;5.18;;;;;;;5.87;70.29;99015.41;5033529;28;20535;-37
2023/11/12 00:04:38;;;;;;;9.05;4.82;;;;;;;5.72;71.16;99005.44;5033159;28;20041;-38
2023/11/12 00:07:04;;;;;;;12.02;6.05;;;;;;;5.78;71.44;99016.47;5030493;28;20044;-37
2023/11/12 00:09:31;;;;;;;12.93;5.30;;;;;;;5.73;71.43;99015.72;5033009;28;20052;-37
2023/11/12 00:11:56;;;;;;;12.35;6.55;;;;;;;5.69;71.56;99008.13;5034273;28;20311;-37
2023/11/12 00:14:24;;;;;;;12.02;6.00;;;;;;;5.48;71.53;98957.94;5048376;28;20497;-37
2023/11/12 00:16:49;;;;;;;9.48;4.82;;;;;;;5.73;72.04;98989.09;5037061;28;20048;-36
2023/11/12 00:19:16;;;;;;;9.10;5.03;;;;;;;5.75;71.84;98974.44;5032128;28;20049;-36
2023/11/12 00:21:46;;;;;;;13.10;6.20;;;;;;;5.73;72.06;98965.88;5030427;28;20048;-37
2023/11/12 00:24:13;;;;;;;11.20;5.97;;;;;;;5.81;72.21;98971.69;5041394;28;20043;-37
2023/11/12 00:26:39;;;;;;;12.13;6.40;;;;;;;5.82;71.72;98970.78;5042616;28;20049;-37
2023/11/12 00:29:05;;;;;;;13.02;5.63;;;;;;;5.87;71.71;98971.53;5024896;28;20049;-37
2023/11/12 00:31:31;;;;;;;11.70;6.38;;;;;;;5.75;71.79;98941.75;5032911;28;20072;-35
2023/11/12 00:33:58;;;;;;;14.10;6.13;;;;;;;5.78;71.74;98926.19;5033913;28;20069;-37
2023/11/12 00:36:24;;;;;;;13.75;6.22;;;;;;;5.99;71.27;98945.44;5047919;28;20120;-37
2023/11/12 00:38:51;;;;;;;12.77;6.15;;;;;;;6.02;71.23;98942.75;5032980;28;20049;-37
2023/11/12 00:41:19;;;;;;;11.93;6.32;;;;;;;6.10;71.06;98951.13;5032429;28;20056;-37
2023/11/12 00:43:45;;;;;;;10.85;5.82;;;;;;;6.10;71.29;98939.97;5031577;28;20040;-37
2023/11/12 00:46:12;;;;;;;14.88;7.00;;;;;;;6.12;71.12;98948.53;5031753;28;20045;-37
2023/11/12 00:48:38;;;;;;;11.38;6.47;;;;;;;6.13;71.06;98934.72;5030169;28;20042;-37
2023/11/12 00:51:04;;;;;;;12.68;7.13;;;;;;;5.97;71.19;98890.44;5032347;28;20459;-36
2023/11/12 00:53:31;;;;;;;14.63;6.80;;;;;;;6.19;71.22;98914.75;5041103;28;20049;-36
2023/11/12 00:55:59;;;;;;;13.52;6.50;;;;;;;6.06;71.00;98897.09;5031994;28;20142;-37
2023/11/12 00:58:26;;;;;;;12.07;5.68;;;;;;;6.14;71.62;98905.44;5035288;28;20064;-37
2023/11/12 01:00:52;;;;;;;12.68;6.30;;;;;;;6.11;71.77;98905.53;5035764;28;20040;-37
2023/11/12 01:03:18;;;;;;;12.45;6.57;;;;;;;6.09;71.79;98904.72;5047381;28;20045;-36
2023/11/12 01:05:44;;;;;;;11.63;6.72;;;;;;;6.14;71.73;98903.69;5031215;28;20041;-35
2023/11/12 01:08:10;;;;;;;15.13;7.65;;;;;;;5.97;71.65;98890.44;5045532;28;20047;-37
2023/11/12 01:10:37;;;;;;;15.27;7.63;;;;;;;6.10;71.83;98896.09;5029533;28;20056;-36
2023/11/12 01:13:05;;;;;;;16.38;7.15;;;;;;;6.19;71.72;98896.66;5029516;28;20532;-36
2023/11/12 01:15:31;;;;;;;18.83;7.85;;;;;;;6.22;72.16;98896.59;5032822;28;20033;-37
2023/11/12 01:17:58;;;;;;;16.77;7.30;;;;;;;6.20;72.32;98894.94;5047861;28;20052;-36
2023/11/12 01:20:25;;;;;;;13.18;6.38;;;;;;;6.26;72.00;98887.03;5029089;28;20036;-37
2023/11/12 01:22:51;;;;;;;12.43;6.63;;;;;;;6.25;72.47;98875.84;5032756;28;20041;-36
2023/11/12 01:25:16;;;;;;;16.65;7.60;;;;;;;6.24;72.83;98869.00;5030193;28;20588;-37
2023/11/12 01:27:44;;;;;;;14.02;7.30;;;;;;;6.06;72.54;98836.00;5047907;28;20509;-36
2023/11/12 01:30:10;;;;;;;15.90;7.18;;;;;;;6.25;72.91;98852.63;5047307;28;20071;-37
2023/11/12 01:32:36;;;;;;;16.33;7.28;;;;;;;6.18;73.34;98845.94;5014794;28;20048;-36
2023/11/12 01:35:03;;;;;;;19.30;8.00;;;;;;;6.16;74.25;98839.16;5032535;28;20131;-36
2023/11/12 01:37:31;;;;;;;15.23;7.28;;;;;;;6.19;74.86;98841.63;5034164;28;20562;-37
2023/11/12 01:39:58;;;;;;;14.65;7.07;;;;;;;6.15;75.29;98840.88;5030241;28;20045;-36
2023/11/12 01:42:25;;;;;;;16.05;7.45;;;;;;;6.08;75.96;98843.69;5032828;28;20429;-36
2023/11/12 01:44:52;;;;;;;17.65;8.05;;;;;;;6.10;75.76;98834.16;5033313;28;20077;-37
2023/11/12 01:47:19;;;;;;;15.00;7.75;;;;;;;6.13;76.26;98822.00;5047412;28;20047;-37
2023/11/12 01:49:45;;;;;;;17.98;7.85;;;;;;;6.19;76.80;98820.97;5031577;28;20036;-38
2023/11/12 01:52:13;;;;;;;16.05;7.28;;;;;;;6.07;77.22;98801.56;5021479;28;20056;-37
2023/11/12 01:54:39;;;;;;;15.02;7.55;;;;;;;6.16;76.95;98818.50;5031778;28;20417;-36
2023/11/12 01:57:06;;;;;;;15.40;7.05;;;;;;;6.11;77.36;98817.81;5047735;28;20037;-37
2023/11/12 01:59:34;;;;;;;14.60;7.10;;;;;;;5.91;77.90;98801.16;5047130;28;20133;-37
2023/11/12 02:02:00;;;;;;;12.77;6.22;;;;;;;6.09;78.26;98812.69;5027877;28;20041;-36
2023/11/12 02:04:29;;;;;;;11.75;6.65;;;;;;;6.01;78.77;98813.81;5034664;28;20159;-36
2023/11/12 02:06:55;;;;;;;14.07;7.35;;;;;;;5.91;79.72;98810.66;5051446;28;20582;-37
2023/11/12 02:09:26;;;;;;;15.95;7.38;;;;;;;5.92;80.25;98805.44;5034854;28;20045;-36
2023/11/12 02:11:52;;;;;;;15.07;6.97;;;;;;;5.92;80.10;98802.00;5034790;28;20171;-35
2023/11/12 02:14:20;;;;;;;16.45;8.13;;;;;;;5.92;80.38;98792.53;5034997;28;20041;-35
2023/11/12 02:16:51;;;;;;;14.50;6.35;;;;;;;5.97;80.61;98801.91;5026686;28;20144;-36
2023/11/12 02:19:28;;;;;;;17.17;7.68;;;;;;;5.84;80.88;98780.75;5048902;28;20037;-36
2023/11/12 02:22:14;;;;;;;15.45;7.40;;;;;;;5.85;81.94;98767.81;5032934;28;20045;-36
2023/11/12 02:24:40;;;;;;;15.00;7.80;;;;;;;5.68;81.83;98733.09;5043866;28;20049;-36
2023/11/12 02:27:06;;;;;;;16.63;8.45;;;;;;;5.94;82.08;98756.38;5031861;28;20041;-37
2023/11/12 02:29:32;;;;;;;20.40;7.93;;;;;;;5.93;82.30;98740.06;5033664;28;20053;-35
2023/11/12 02:31:59;;;;;;;19.42;9.30;;;;;;;6.01;82.75;98728.69;5049988;28;20424;-36
2023/11/12 02:34:25;;;;;;;18.55;9.32;;;;;;;5.84;82.33;98685.31;5039248;28;20065;-36
2023/11/12 02:36:52;;;;;;;19.30;9.90;;;;;;;6.11;82.29;98727.50;5040841;28;20048;-36
2023/11/12 02:39:20;;;;;;;17.05;8.15;;;;;;;6.12;82.30;98724.03;5036275;28;20038;-35
2023/11/12 02:41:49;;;;;;;19.02;8.98;;;;;;;6.14;82.61;98709.31;5033524;28;20810;-36
2023/11/12 02:44:14;;;;;;;19.45;9.07;;;;;;;6.16;82.28;98705.81;5035798;28;20045;-36
2023/11/12 02:46:41;;;;;;;15.18;7.50;;;;;;;6.16;82.54;98700.66;5034555;28;20049;-36
2023/11/12 02:49:07;;;;;;;19.35;9.70;;;;;;;6.12;81.94;98695.66;5031114;28;20098;-37
2023/11/12 02:51:34;;;;;;;19.83;9.05;;;;;;;6.15;82.15;98686.06;5031188;28;20057;-36
2023/11/12 02:54:00;;;;;;;18.58;9.35;;;;;;;6.18;82.46;98678.22;5034999;28;20045;-36
2023/11/12 02:56:26;;;;;;;15.93;7.85;;;;;;;6.17;82.62;98671.38;5049417;28;20090;-36
2023/11/12 02:58:52;;;;;;;15.93;8.23;;;;;;;6.15;82.32;98654.25;5034615;28;20037;-36
2023/11/12 03:01:19;;;;;;;14.57;7.47;;;;;;;6.18;82.49;98654.13;5027542;28;20029;-41
2023/11/12 03:03:45;;;;;;;16.40;7.90;;;;;;;6.20;82.71;98639.44;5034182;28;20045;-36
2023/11/12 03:06:12;;;;;;;16.80;8.35;;;;;;;5.99;83.06;98610.06;5034620;28;20564;-36
2023/11/12 03:08:42;;;;;;;12.52;6.72;;;;;;;6.15;82.99;98639.63;5033922;28;20059;-36
2023/11/12 03:11:12;;;;;;;13.25;7.80;;;;;;;6.16;83.64;98630.13;5047586;28;20505;-36
2023/11/12 03:13:38;;;;;;;12.75;7.53;;;;;;;6.17;83.40;98627.50;5046746;28;20114;-37
2023/11/12 03:16:04;;;;;;;16.35;8.73;;;;;;;6.18;83.19;98621.44;5047471;28;20049;-35
2023/11/12 03:18:30;;;;;;;13.60;7.70;;;;;;;6.10;83.35;98620.00;5028985;28;20041;-36
2023/11/12 03:20:56;;;;;;;12.57;6.90;;;;;;;6.11;83.25;98625.13;5033163;28;20060;-37
2023/11/12 03:23:22;;;;;;;14.60;7.47;;;;;;;6.10;83.32;98604.53;5034522;28;20041;-36
2023/11/12 03:25:48;;;;;;;15.60;7.50;;;;;;;6.11;82.91;98606.22;5036226;28;20044;-36
2023/11/12 03:28:14;;;;;;;12.70;6.47;;;;;;;6.17;82.62;98606.88;5037913;28;20041;-38
2023/11/12 03:30:40;;;;;;;14.43;7.07;;;;;;;6.04;82.99;98576.34;5033446;28;20425;-37
2023/11/12 03:33:07;;;;;;;14.93;7.28;;;;;;;6.23;82.92;98587.72;5034122;28;20465;-37
2023/11/12 03:35:34;;;;;;;14.30;6.93;;;;;;;6.24;82.80;98586.84;5049484;28;20134;-37
2023/11/12 03:38:01;;;;;;;17.50;7.72;;;;;;;6.22;82.44;98574.00;5048079;28;20076;-36
2023/11/12 03:40:27;;;;;;;14.18;7.50;;;;;;;6.21;82.42;98576.63;5015277;28;20138;-36
2023/11/12 03:42:53;;;;;;;14.80;6.70;;;;;;;6.01;82.64;98536.03;5033167;28;20041;-37
2023/11/12 03:45:19;;;;;;;16.38;7.63;;;;;;;6.25;82.10;98579.06;5047745;28;20139;-37
2023/11/12 03:47:46;;;;;;;14.38;7.65;;;;;;;6.25;82.43;98571.31;5040513;28;20508;-37
2023/11/12 03:50:12;;;;;;;11.90;6.15;;;;;;;6.23;81.83;98573.09;5047692;28;20048;-35
2023/11/12 03:52:38;;;;;;;11.63;6.72;;;;;;;6.17;81.70;98570.75;5049306;28;20048;-39
2023/11/12 03:55:06;;;;;;;13.82;7.07;;;;;;;6.18;82.01;98556.91;5049448;28;20135;-37
2023/11/12 03:57:32;;;;;;;12.40;6.35;;;;;;;6.18;81.91;98556.91;5022440;28;20052;-37
2023/11/12 03:59:58;;;;;;;13.90;6.22;;;;;;;6.20;81.59;98567.19;5032072;28;20045;-37
2023/11/12 04:02:24;;;;;;;12.57;6.53;;;;;;;6.16;81.35;98563.06;5031296;28;20044;-37
2023/11/12 04:04:51;;;;;;;11.77;6.22;;;;;;;6.20;81.42;98554.28;5033760;28;20045;-35
2023/11/12 04:07:17;;;;;;;14.07;7.00;;;;;;;6.23;81.74;98538.69;5048868;28;20041;-37
2023/11/12 04:09:43;;;;;;;14.98;6.05;;;;;;;6.29;80.96;98534.16;5032790;28;20053;-36
2023/11/12 04:12:10;;;;;;;12.35;5.97;;;;;;;6.21;81.05;98525.88;5034180;28;20443;-36
2023/11/12 04:14:38;;;;;;;8.75;5.03;;;;;;;6.26;80.83;98529.13;5027477;28;20160;-37
2023/11/12 04:17:04;;;;;;;10.40;5.90;;;;;;;6.22;80.96;98530.13;5036302;28;20041;-36
2023/11/12 04:19:30;;;;;;;10.55;5.43;;;;;;;6.20;80.98;98524.19;5052355;28;20329;-35
2023/11/12 04:21:57;;;;;;;14.40;5.78;;;;;;;6.06;80.67;98495.44;5032147;28;20040;-36
2023/11/12 04:24:26;;;;;;;11.30;5.63;;;;;;;6.27;81.13;98529.97;5030525;28;20052;-37
2023/11/12 04:26:54;;;;;;;10.63;5.13;;;;;;;6.10;80.74;98481.53;5031514;28;20459;-36
2023/11/12 04:29:20;;;;;;;7.65;4.28;;;;;;;6.20;80.35;98516.44;5033872;28;20041;-36
2023/11/12 04:31:47;;;;;;;9.10;5.28;;;;;;;6.07;79.60;98499.69;5032797;28;20540;-37
2023/11/12 04:34:13;;;;;;;9.05;5.00;;;;;;;6.08;80.29;98485.91;5038891;28;20576;-37
2023/11/12 04:36:39;;;;;;;8.32;4.60;;;;;;;5.94;80.37;98441.69;5034671;28;20071;-35
2023/11/12 04:39:07;;;;;;;9.95;4.70;;;;;;;6.07;79.74;98466.16;5030452;28;20509;-36
2023/11/12 04:41:35;;;;;;;;;;;;;;;6.00;80.19;98475.03;5032072;28;20164;-37
2023/11/12 04:44:01;;;;;;;10.63;5.35;;;;;;;5.83;79.97;98449.78;5030252;28;20015;-36
2023/11/12 04:46:27;;;;;;;9.50;5.20;;;;;;;6.03;80.10;98459.41;5033288;28;20040;-37
2023/11/12 04:48:54;;;;;;;10.07;5.13;;;;;;;6.12;80.16;98469.44;5042095;28;20425;-37
2023/11/12 04:51:20;;;;;;;11.32;5.30;;;;;;;6.08;79.73;98454.94;5048518;28;20068;-36
2023/11/12 04:53:48;;;;;;;7.07;3.90;;;;;;;6.09;80.12;98450.63;5032215;28;20847;-36
2023/11/12 04:56:14;;;;;;;9.65;4.35;;;;;;;6.10;79.86;98445.41;5033245;28;20065;-36
2023/11/12 04:58:40;;;;;;;8.07;4.22;;;;;;;6.09;80.18;98432.56;5032068;28;20072;-37
2023/11/12 05:01:08;;;;;;;9.27;4.88;;;;;;;6.05;80.19;98433.56;5031981;28;20121;-36
2023/11/12 05:03:35;;;;;;;7.90;4.32;;;;;;;5.94;79.95;98431.38;5032070;28;20140;-36
2023/11/12 05:06:01;;;;;;;7.47;4.13;;;;;;;5.93;79.81;98416.78;5033310;28;20067;-37
2023/11/12 05:08:27;;;;;;;8.18;4.43;;;;;;;6.12;79.92;98446.22;5032915;28;20052;-37
2023/11/12 05:10:53;;;;;;;10.00;4.85;;;;;;;6.18;79.31;98447.69;5033047;28;20037;-37
2023/11/12 05:13:20;;;;;;;8.35;4.13;;;;;;;6.11;79.88;98435.94;5030674;28;20084;-36
2023/11/12 05:15:46;;;;;;;8.07;4.82;;;;;;;6.09;79.83;98433.41;5028082;28;20521;-36
2023/11/12 05:18:13;;;;;;;8.93;4.50;;;;;;;5.97;80.26;98394.34;5031886;28;20131;-37
2023/11/12 05:20:39;;;;;;;8.02;4.03;;;;;;;6.15;79.98;98428.03;5031793;28;20565;-37
2023/11/12 05:23:05;;;;;;;7.40;4.07;;;;;;;6.14;79.88;98422.91;5030699;28;20132;-37
2023/11/12 05:25:31;;;;;;;7.70;4.60;;;;;;;6.08;80.08;98425.72;5029205;28;20045;-36
2023/11/12 05:27:57;;;;;;;8.13;4.20;;;;;;;6.09;79.88;98415.34;5031679;28;20114;-37
2023/11/12 05:30:24;;;;;;;8.93;4.88;;;;;;;5.87;80.04;98393.78;5031644;28;20533;-36
2023/11/12 05:32:50;;;;;;;10.82;5.40;;;;;;;5.84;80.12;98371.53;5032217;28;20056;-38
2023/11/12 05:35:18;;;;;;;9.98;4.97;;;;;;;5.97;79.83;98377.09;5047279;28;20676;-35
2023/11/12 05:37:44;;;;;;;8.70;4.07;;;;;;;6.10;79.75;98398.13;5034506;28;20452;-37
2023/11/12 05:40:14;;;;;;;6.45;3.95;;;;;;;5.96;79.73;98396.06;5030677;28;20443;-37
2023/11/12 05:42:40;;;;;;;;;;;;;;;5.96;80.10;98393.50;5038367;28;20390;-37
2023/11/12 05:45:06;;;;;;;8.38;5.07;;;;;;;5.90;80.01;98385.97;5039588;28;19924;-35
2023/11/12 05:47:33;;;;;;;9.73;5.03;;;;;;;5.94;80.12;98384.94;5035514;28;20120;-36
2023/11/12 05:50:00;;;;;;;11.07;4.75;;;;;;;5.88;79.98;98364.53;5033059;28;20102;-36
2023/11/12 05:52:26;;;;;;;11.00;5.38;;;;;;;5.93;80.39;98365.22;5035090;28;20033;-37
2023/11/12 05:54:52;;;;;;;8.32;4.68;;;;;;;5.96;80.47;98365.13;5034337;28;20080;-38
2023/11/12 05:57:20;;;;;;;8.70;4.20;;;;;;;5.93;79.96;98357.47;5047927;28;20139;-36
2023/11/12 05:59:46;;;;;;;7.75;4.88;;;;;;;5.89;80.40;98346.44;5056410;28;20040;-36
2023/11/12 06:02:11;;;;;;;9.82;4.82;;;;;;;5.73;80.54;98310.91;5057549;28;20055;-36
2023/11/12 06:04:38;;;;;;;8.48;4.50;;;;;;;5.99;80.27;98339.19;5056556;28;20500;-37
2023/11/12 06:07:04;;;;;;;8.30;4.43;;;;;;;6.01;79.89;98327.09;5051231;28;20599;-36
2023/11/12 06:09:31;;;;;;;6.75;3.75;;;;;;;5.99;80.26;98310.81;5055547;28;20131;-38
2023/11/12 06:11:57;;;;;;;10.05;4.68;;;;;;;6.01;79.92;98329.66;5049857;28;20036;-36
2023/11/12 06:14:23;;;;;;;8.25;4.70;;;;;;;6.03;80.18;98320.13;5054444;28;20044;-40
2023/11/12 06:16:49;;;;;;;8.85;4.85;;;;;;;5.91;80.08;98277.56;5052415;28;20037;-36
2023/11/12 06:19:14;;;;;;;7.10;3.70;;;;;;;6.19;79.55;98322.94;5056516;28;20044;-37
2023/11/12 06:21:40;;;;;;;11.23;5.53;;;;;;;6.12;79.35;98288.84;5053665;28;20451;-39
2023/11/12 06:24:07;;;;;;;8.18;4.75;;;;;;;6.22;79.00;98295.31;5038035;28;20753;-38
2023/11/12 06:26:33;;;;;;;9.27;4.68;;;;;;;6.28;79.23;98296.81;5055377;28;20052;-37
2023/11/12 06:28:59;;;;;;;9.93;5.50;;;;;;;6.12;78.86;98259.59;5058328;28;21407;-38
2023/11/12 06:31:26;;;;;;;8.32;4.35;;;;;;;6.32;78.88;98281.16;5051626;28;20508;-37
2023/11/12 06:33:52;;;;;;;10.02;4.78;;;;;;;6.35;78.58;98273.28;5058112;28;20137;-37
2023/11/12 06:36:19;;;;;;;9.25;4.72;;;;;;;6.19;78.53;98251.56;5072938;28;20489;-37
2023/11/12 06:38:48;;;;;;;10.82;4.57;;;;;;;6.27;78.15;98266.75;5056618;28;20397;-37
2023/11/12 06:41:14;;;;;;;9.27;4.40;;;;;;;6.29;77.98;98264.91;5053501;28;20029;-39
2023/11/12 06:43:40;;;;;;;9.90;3.88;;;;;;;6.26;77.81;98260.75;5053723;28;20045;-38
2023/11/12 06:46:07;;;;;;;9.25;4.90;;;;;;;6.19;77.74;98238.66;5052212;28;20033;-39
2023/11/12 06:48:34;;;;;;;8.20;4.35;;;;;;;6.34;77.79;98263.00;5053490;28;20077;-38
2023/11/12 06:51:00;;;;;;;6.97;4.22;;;;;;;6.35;77.72;98259.53;5055347;28;20084;-37
2023/11/12 06:53:26;;;;;;;8.60;3.92;;;;;;;6.32;77.55;98247.59;5053801;28;20052;-38
2023/11/12 06:55:53;;;;;;;10.75;5.07;;;;;;;6.13;77.13;98209.66;5055470;28;20037;-37
2023/11/12 06:58:20;;;;;;;8.90;4.40;;;;;;;6.29;77.09;98227.06;5056299;28;20457;-37
2023/11/12 07:00:46;;;;;;;7.25;3.75;;;;;;;6.36;77.16;98227.66;5053416;28;20557;-37
2023/11/12 07:03:12;;;;;;;11.65;4.90;;;;;;;6.27;77.16;98200.50;5052456;28;20127;-38
2023/11/12 07:05:38;;;;;;;7.65;4.03;;;;;;;6.23;77.35;98165.38;5056190;28;20040;-38
2023/11/12 07:08:05;;;;;;;17.23;4.28;;;;;;;6.36;77.26;98207.00;5055086;28;20044;-38
2023/11/12 07:10:31;;;;;;;10.75;4.35;;;;;;;6.19;77.44;98181.03;5051734;28;20040;-38
2023/11/12 07:12:59;;;;;;;9.25;4.60;;;;;;;6.34;77.64;98186.41;5049958;28;20037;-38
2023/11/12 07:15:26;;;;;;;7.70;4.18;;;;;;;6.36;77.94;98182.03;5051873;28;20044;-39
2023/11/12 07:17:52;;;;;;;9.88;4.82;;;;;;;6.42;77.67;98195.59;5053673;28;20102;-38
2023/11/12 07:20:19;;;;;;;9.13;4.30;;;;;;;6.32;77.68;98180.50;5056760;28;20040;-37
2023/11/12 07:22:46;;;;;;;7.85;4.35;;;;;;;6.26;78.60;98187.66;5051271;28;20044;-37
2023/11/12 07:25:13;;;;;;;7.70;4.35;;;;;;;6.23;78.86;98188.59;5053594;28;20032;-38
2023/11/12 07:27:40;;;;;;;8.88;3.70;;;;;;;5.95;79.73;98155.34;5052790;28;20048;-38
2023/11/12 07:30:07;;;;;;;12.68;5.07;;;;;;;6.17;80.38;98183.72;5036368;28;20041;-36
2023/11/12 07:32:33;;;;;;;10.57;4.03;;;;;;;5.97;81.04;98162.19;5032131;28;20045;-37
2023/11/12 07:35:01;;;;;;;5.93;3.35;;;;;;;6.02;81.23;98168.81;5039768;28;20094;-37
2023/11/12 07:37:30;;;;;;;10.10;5.03;;;;;;;5.94;81.89;98176.88;5056740;28;20073;-37
2023/11/12 07:39:56;;;;;;;7.20;4.00;;;;;;;5.93;82.84;98167.47;5055811;28;20028;-37
2023/11/12 07:42:22;;;;;;;9.00;4.38;;;;;;;5.77;83.11;98158.63;5033220;28;20037;-38
2023/11/12 07:44:48;;;;;;;6.90;3.53;;;;;;;5.65;84.19;98156.53;5031523;28;20515;-37
2023/11/12 07:47:14;;;;;;;9.75;4.70;;;;;;;5.61;85.83;98160.13;5046683;28;20060;-37
2023/11/12 07:49:40;;;;;;;9.23;4.60;;;;;;;5.56;86.21;98141.41;5033223;28;20041;-37
2023/11/12 07:52:06;;;;;;;8.40;3.95;;;;;;;5.59;86.97;98131.00;5032722;28;20424;-36
2023/11/12 07:54:32;;;;;;;10.05;4.15;;;;;;;5.60;87.21;98145.53;5032198;28;20752;-37
2023/11/12 07:56:58;;;;;;;7.15;3.88;;;;;;;5.57;87.70;98144.81;5050694;28;20060;-37
2023/11/12 07:59:24;;;;;;;8.70;4.32;;;;;;;5.41;87.71;98109.34;5051883;28;20111;-37
2023/11/12 08:01:50;;;;;;;8.75;4.05;;;;;;;5.55;88.20;98130.25;5049237;28;20037;-41
2023/11/12 08:04:17;;;;;;;7.05;4.00;;;;;;;5.52;88.84;98137.28;5055628;28;20041;-36
2023/11/12 08:06:48;;;;;;;8.40;4.22;;;;;;;5.48;89.55;98126.25;5055398;28;20029;-37
2023/11/12 08:09:14;;;;;;;7.30;3.63;;;;;;;5.46;90.14;98117.75;5055183;28;20040;-36
2023/11/12 08:11:43;;;;;;;6.70;3.75;;;;;;;5.42;91.05;98108.44;5060097;28;20066;-37
2023/11/12 08:14:09;;;;;;;10.13;4.05;;;;;;;5.06;91.29;98066.91;5039497;28;20040;-37
2023/11/12 08:16:36;;;;;;;6.43;3.70;;;;;;;5.10;91.74;98075.34;5040580;28;20037;-42
2023/11/12 08:19:03;;;;;;;6.07;3.33;;;;;;;5.31;92.32;98107.19;5044399;28;20509;-37
2023/11/12 08:21:29;;;;;;;6.88;3.45;;;;;;;5.15;92.22;98088.06;5042365;28;20199;-37
2023/11/12 08:23:55;;;;;;;5.63;3.70;;;;;;;5.25;92.12;98092.78;5040924;28;20047;-37
2023/11/12 08:26:21;;;;;;;6.38;3.50;;;;;;;5.25;92.52;98079.91;5039963;28;20050;-44
2023/11/12 08:28:48;;;;;;;7.45;3.95;;;;;;;5.27;92.43;98072.97;5033944;28;20815;-42
2023/11/12 08:31:14;;;;;;;6.65;3.30;;;;;;;5.28;92.74;98061.78;5058392;28;20041;-38
2023/11/12 08:33:40;;;;;;;7.30;3.80;;;;;;;5.11;93.19;98033.25;5031004;28;20041;-36
2023/11/12 08:36:06;;;;;;;7.13;3.50;;;;;;;5.33;93.36;98057.28;5036815;28;20079;-40
2023/11/12 08:38:34;;;;;;;9.85;3.22;;;;;;;5.13;93.70;98030.63;5032751;28;20132;-38
2023/11/12 08:41:01;;;;;;;6.27;3.30;;;;;;;5.33;93.99;98056.44;5047799;28;20664;-38
2023/11/12 08:43:27;;;;;;;9.20;3.78;;;;;;;5.27;94.98;98054.09;5030183;28;20052;-39
2023/11/12 08:45:53;;;;;;;8.63;3.38;;;;;;;5.22;95.18;98059.44;5031860;28;20040;-37
2023/11/12 08:48:20;;;;;;;7.25;3.80;;;;;;;5.18;96.37;98050.16;5031131;28;20044;-40
2023/11/12 08:50:46;;;;;;;7.88;3.53;;;;;;;5.11;96.93;98039.25;5026841;28;20069;-36
2023/11/12 08:53:12;;;;;;;8.65;3.83;;;;;;;5.35;97.29;98054.63;5033258;28;20492;-36
2023/11/12 08:55:38;;;;;;;6.57;3.35;;;;;;;5.32;97.43;98053.03;5032377;28;20528;-39
2023/11/12 08:58:05;;;;;;;7.57;3.55;;;;;;;5.29;97.00;98047.13;5044311;28;20059;-36
2023/11/12 09:00:31;;;;;;;6.30;3.33;;;;;;;5.21;97.85;98047.44;5029505;28;20143;-39
2023/11/12 09:02:57;;;;;;;8.18;3.65;;;;;;;5.22;98.02;98035.41;5042983;28;20052;-38
2023/11/12 09:05:23;;;;;;;4.90;3.03;;;;;;;5.18;97.78;98019.25;5027978;28;20068;-38
2023/11/12 09:07:50;;;;;;;6.25;3.47;;;;;;;5.17;98.71;98009.84;5048097;28;20068;-38
2023/11/12 09:10:17;;;;;;;8.43;2.92;;;;;;;5.15;98.63;98001.31;5040669;28;20077;-39
2023/11/12 09:12:45;;;;;;;6.13;3.17;;;;;;;5.21;99.34;98003.66;5047801;28;20049;-38
2023/11/12 09:15:11;;;;;;;5.20;3.00;;;;;;;5.22;99.96;97994.19;5030238;28;20045;-39
2023/11/12 09:17:38;;;;;;;5.70;3.08;;;;;;;5.23;99.66;97986.41;5045623;28;20077;-38
2023/11/12 09:20:04;;;;;;;6.32;3.13;;;;;;;5.21;99.83;97982.22;5050122;28;20049;-37
2023/11/12 09:22:31;;;;;;;6.28;3.00;;;;;;;5.25;100.00;97982.03;5049481;28;20038;-39
2023/11/12 09:24:57;;;;;;;7.78;3.20;;;;;;;5.32;100.00;97982.63;5046454;28;20051;-38
2023/11/12 09:27:23;;;;;;;7.28;3.10;;;;;;;5.34;99.92;97973.91;5050487;28;20037;-38
2023/11/12 09:29:49;;;;;;;5.90;3.10;;;;;;;5.29;99.65;97968.09;5049680;28;20516;-37
2023/11/12 09:32:15;;;;;;;4.93;2.60;;;;;;;5.23;100.00;97970.97;5043717;28;20049;-39
2023/11/12 09:34:41;;;;;;;5.93;2.88;;;;;;;5.22;100.00;97958.97;5049640;28;20067;-39
2023/11/12 09:37:07;;;;;;;5.53;2.60;;;;;;;5.24;100.00;97966.63;5037270;28;20037;-38
2023/11/12 09:39:33;;;;;;;4.70;2.88;;;;;;;5.27;100.00;97951.06;5021620;28;20099;-38
2023/11/12 09:42:01;;;;;;;6.53;3.38;;;;;;;5.34;100.00;97949.91;5039143;28;20141;-39
2023/11/12 09:44:31;;;;;;;4.82;2.40;;;;;;;5.13;100.00;97907.00;5050088;28;20045;-38
2023/11/12 09:47:23;;;;;;;4.38;2.47;;;;;;;5.28;99.86;97940.69;5047806;28;20533;-38
2023/11/12 09:49:50;;;;;;;7.70;2.90;;;;;;;5.12;100.00;97888.13;5032505;28;20043;-38
2023/11/12 09:52:16;;;;;;;6.25;3.30;;;;;;;5.37;100.00;97927.44;5049486;28;20128;-39
2023/11/12 09:54:43;;;;;;;5.47;2.95;;;;;;;5.42;99.81;97916.94;5033353;28;20049;-39
2023/11/12 09:57:09;;;;;;;6.15;2.88;;;;;;;5.25;99.68;97885.88;5043330;28;20040;-39
2023/11/12 09:59:36;;;;;;;5.38;3.05;;;;;;;5.45;99.39;97903.91;5051318;28;20041;-39
2023/11/12 10:02:05;;;;;;;5.13;2.67;;;;;;;5.51;99.71;97906.22;5039555;28;20046;-38
2023/11/12 10:04:31;;;;;;;3.30;2.15;;;;;;;5.34;99.17;97870.03;5037053;28;20053;-38
2023/11/12 10:06:57;;;;;;;4.05;2.75;;;;;;;5.47;98.66;97902.09;5036257;28;20045;-38
2023/11/12 10:09:28;;;;;;;4.05;2.45;;;;;;;5.51;99.15;97890.75;5035394;28;20607;-38
2023/11/12 10:12:03;;;;;;;5.57;2.63;;;;;;;5.49;98.69;97880.53;5039788;28;20505;-38
2023/11/12 10:14:29;;;;;;;4.43;2.17;;;;;;;5.38;98.84;97861.28;5037931;28;20421;-39
2023/11/12 10:17:13;;;;;;;6.05;2.55;;;;;;;5.26;97.93;97829.13;5026699;28;20083;-38
2023/11/12 10:19:40;;;;;;;5.13;2.83;;;;;;;5.37;98.20;97826.09;5043406;28;20041;-39
2023/11/12 10:22:07;;;;;;;5.82;2.70;;;;;;;5.61;97.46;97849.94;5052708;28;20060;-39
2023/11/12 10:24:45;;;;;;;7.10;2.42;;;;;;;5.80;97.40;97864.56;5039783;28;20041;-40
2023/11/12 10:27:14;;;;;;;6.00;2.70;;;;;;;5.83;97.04;97856.69;5034471;28;20068;-40
2023/11/12 10:29:44;;;;;;;5.03;2.78;;;;;;;5.88;96.32;97851.34;5033752;28;20045;-39
2023/11/12 10:32:24;;;;;;;4.80;2.55;;;;;;;5.86;96.70;97837.69;5033787;28;20057;-40
2023/11/12 10:34:50;;;;;;;3.80;2.55;;;;;;;5.53;95.83;97793.59;5031985;28;20511;-40
2023/11/12 10:37:19;;;;;;;4.68;2.45;;;;;;;5.86;96.52;97835.91;5033750;28;20041;-39
2023/11/12 10:39:46;;;;;;;5.22;2.33;;;;;;;5.89;95.68;97834.97;5043909;28;20036;-38
2023/11/12 10:42:20;;;;;;;4.63;2.35;;;;;;;5.88;96.06;97828.16;5041254;28;20055;-39
2023/11/12 10:44:57;;;;;;;5.40;2.40;;;;;;;5.93;95.96;97813.31;5047927;28;20512;-38
2023/11/12 10:47:25;;;;;;;4.65;2.45;;;;;;;5.64;95.73;97764.78;5035094;28;20128;-38
2023/11/12 10:49:51;;;;;;;3.00;2.30;;;;;;;6.02;95.60;97819.78;5034197;28;20095;-39
2023/11/12 10:52:18;;;;;;;3.42;2.25;;;;;;;5.98;95.36;97798.44;5035066;28;20042;-38
2023/11/12 10:54:47;;;;;;;3.63;2.33;;;;;;;5.94;95.29;97799.50;5032256;28;20094;-44
2023/11/12 10:57:13;;;;;;;3.72;2.22;;;;;;;5.91;95.36;97802.25;5048086;28;20136;-39
2023/11/12 10:59:40;;;;;;;3.60;2.00;;;;;;;5.88;94.97;97786.88;5032457;28;20406;-39
2023/11/12 11:02:13;;;;;;;3.30;1.85;;;;;;;5.85;95.06;97789.59;5035096;28;20039;-38
2023/11/12 11:04:39;;;;;;;4.28;2.15;;;;;;;5.88;95.01;97786.88;5050304;28;20034;-39
2023/11/12 11:07:06;;;;;;;3.80;2.10;;;;;;;5.89;94.59;97778.25;5034178;28;20049;-39
2023/11/12 11:09:32;;;;;;;5.28;2.63;;;;;;;5.84;95.39;97767.28;5033716;28;20468;-39
2023/11/12 11:12:02;;;;;;;3.88;2.25;;;;;;;5.92;95.02;97778.09;5049379;28;20034;-39
2023/11/12 11:14:28;;;;;;;3.78;1.80;;;;;;;5.96;95.51;97774.50;5034544;28;20053;-38
2023/11/12 11:16:54;;;;;;;4.25;2.45;;;;;;;5.92;96.30;97765.19;5033907;28;20136;-38
2023/11/12 11:19:44;;;;;;;4.22;2.35;;;;;;;5.97;96.04;97757.28;5031703;28;20073;-38
2023/11/12 11:22:28;;;;;;;5.75;2.60;;;;;;;5.99;96.08;97755.44;5028022;28;20060;-39
2023/11/12 11:24:56;;;;;;;4.75;2.17;;;;;;;5.96;96.30;97753.88;5047098;28;20103;-40
2023/11/12 11:27:24;;;;;;;4.95;2.70;;;;;;;5.94;96.26;97753.91;5038323;28;20041;-38
2023/11/12 11:30:09;;;;;;;4.65;2.58;;;;;;;5.98;96.85;97741.72;5016510;28;20098;-38
2023/11/12 11:32:36;;;;;;;4.90;2.45;;;;;;;5.83;96.39;97698.56;5030962;28;20053;-39
2023/11/12 11:35:15;;;;;;;4.00;2.25;;;;;;;6.05;96.23;97730.22;5027745;28;20052;-38
2023/11/12 11:38:11;;;;;;;3.83;2.40;;;;;;;6.03;96.27;97719.13;5041738;28;20041;-43
2023/11/12 11:40:45;;;;;;;4.28;2.33;;;;;;;6.08;96.19;97717.16;5036406;28;20041;-39